Time;durP1;ratioP1;P1;durP2;ratioP2;P2;SDS_P1;SDS_P2;PMS_P1;PMS_P2;Temp;Humidity;BMP_temperature;BMP_pressure;BME280_temperature;BME280_humidity;BME280_pressure;Samples;Min_cycle;Max_cycle;Signal;HPM_P1;HPM_P2
2022/11/15 00:01:53;;;;;;;5.63;4.23;;;;;;;9.79;100.00;97911.06;5080340;28;20261;-68
2022/11/15 00:04:19;;;;;;;4.90;4.17;;;;;;;9.82;100.00;97907.38;5080302;28;20253;-68
2022/11/15 00:06:47;;;;;;;4.87;3.80;;;;;;;9.84;100.00;97902.84;5080333;28;20229;-68
2022/11/15 00:09:14;;;;;;;4.10;3.50;;;;;;;9.86;100.00;97900.94;5080315;28;20247;-68
2022/11/15 00:11:40;;;;;;;4.90;4.10;;;;;;;9.86;100.00;97900.94;5080199;28;20265;-68
2022/11/15 00:14:07;;;;;;;5.87;3.90;;;;;;;9.87;100.00;97897.34;5080165;28;20254;-67
2022/11/15 00:16:34;;;;;;;5.70;4.13;;;;;;;9.86;100.00;97903.59;5080021;28;20660;-68
2022/11/15 00:19:00;;;;;;;5.77;3.40;;;;;;;9.85;100.00;97905.38;5078188;28;20628;-67
2022/11/15 00:21:27;;;;;;;4.93;3.70;;;;;;;9.85;100.00;97899.25;5080142;28;20264;-68
2022/11/15 00:23:55;;;;;;;4.20;3.47;;;;;;;9.84;100.00;97903.69;5079979;28;20250;-68
2022/11/15 00:26:22;;;;;;;3.80;3.20;;;;;;;9.84;100.00;97910.78;5079906;28;20265;-68
2022/11/15 00:28:48;;;;;;;4.63;3.47;;;;;;;9.83;100.00;97907.28;5079801;28;20552;-68
2022/11/15 00:31:16;;;;;;;3.97;3.23;;;;;;;9.82;100.00;97902.97;5079717;28;20270;-68
2022/11/15 00:33:44;;;;;;;5.00;3.43;;;;;;;9.83;100.00;97898.50;5079665;28;20629;-68
2022/11/15 00:36:11;;;;;;;5.80;3.40;;;;;;;9.83;100.00;97901.16;5079603;28;20251;-69
2022/11/15 00:38:40;;;;;;;3.93;3.00;;;;;;;9.84;100.00;97898.41;5079394;28;20218;-68
2022/11/15 00:41:08;;;;;;;4.13;3.10;;;;;;;9.84;100.00;97897.56;5079575;28;20247;-69
2022/11/15 00:43:35;;;;;;;4.00;3.23;;;;;;;9.85;100.00;97888.72;5079379;28;20262;-69
2022/11/15 00:46:02;;;;;;;4.90;3.43;;;;;;;9.82;100.00;97891.53;5077827;28;20303;-68
2022/11/15 00:48:29;;;;;;;5.07;3.13;;;;;;;9.75;100.00;97887.66;5079469;28;20223;-68
2022/11/15 00:50:56;;;;;;;3.63;2.97;;;;;;;9.70;100.00;97884.47;5079330;28;20249;-68
2022/11/15 00:53:22;;;;;;;4.10;3.10;;;;;;;9.63;100.00;97891.13;5079369;28;20300;-68
2022/11/15 00:55:49;;;;;;;3.70;2.90;;;;;;;9.54;100.00;97889.97;5079439;28;20274;-68
2022/11/15 00:58:17;;;;;;;3.77;3.10;;;;;;;9.48;100.00;97900.13;5079320;28;20296;-67
2022/11/15 01:00:44;;;;;;;3.23;2.73;;;;;;;9.41;100.00;97904.09;5079079;28;20277;-68
2022/11/15 01:03:10;;;;;;;4.13;3.10;;;;;;;9.39;100.00;97895.44;5079229;28;20261;-68
2022/11/15 01:05:38;;;;;;;4.67;3.13;;;;;;;9.32;100.00;97896.81;5079327;28;20665;-68
2022/11/15 01:08:05;;;;;;;4.17;3.13;;;;;;;9.24;100.00;97891.25;5079152;28;20262;-68
2022/11/15 01:10:31;;;;;;;4.00;3.37;;;;;;;9.13;100.00;97893.75;5077233;28;20254;-68
2022/11/15 01:12:58;;;;;;;3.57;3.20;;;;;;;9.07;100.00;97888.88;5079084;28;20299;-68
2022/11/15 01:15:26;;;;;;;5.47;3.50;;;;;;;8.98;100.00;97884.22;5078912;28;20263;-68
2022/11/15 01:17:53;;;;;;;4.53;3.37;;;;;;;8.96;100.00;97894.03;5078968;28;20250;-68
2022/11/15 01:20:19;;;;;;;4.27;3.40;;;;;;;8.87;100.00;97892.84;5078778;28;20344;-68
2022/11/15 01:22:46;;;;;;;5.13;3.60;;;;;;;8.80;100.00;97885.44;5078781;28;20218;-68
2022/11/15 01:25:13;;;;;;;6.07;3.87;;;;;;;8.66;100.00;97896.91;5078693;28;20256;-68
2022/11/15 01:27:39;;;;;;;6.43;4.10;;;;;;;8.52;100.00;97896.09;5078635;28;20253;-68
2022/11/15 01:30:08;;;;;;;5.80;3.80;;;;;;;8.49;100.00;97896.28;5078629;28;20271;-68
2022/11/15 01:32:36;;;;;;;5.00;3.93;;;;;;;8.44;100.00;97903.66;5078530;28;20222;-68
2022/11/15 01:35:02;;;;;;;6.03;3.63;;;;;;;8.37;100.00;97897.91;5078493;28;20244;-68
2022/11/15 01:37:29;;;;;;;6.53;3.73;;;;;;;8.32;100.00;97901.81;5076682;28;20219;-68
2022/11/15 01:39:55;;;;;;;6.70;4.13;;;;;;;8.21;100.00;97891.09;5078303;28;20266;-68
2022/11/15 01:42:22;;;;;;;5.90;4.20;;;;;;;8.05;100.00;97896.47;5078284;28;20255;-68
2022/11/15 01:44:50;;;;;;;6.23;4.23;;;;;;;8.10;100.00;97893.53;5078490;28;20302;-68
2022/11/15 01:47:21;;;;;;;6.30;4.17;;;;;;;8.07;100.00;97898.97;5078254;28;20267;-68
2022/11/15 01:49:56;;;;;;;4.53;3.97;;;;;;;8.04;100.00;97893.91;5078001;28;20672;-68
2022/11/15 01:52:25;;;;;;;5.00;4.03;;;;;;;7.91;100.00;97903.53;5078270;28;20260;-69
2022/11/15 01:54:57;;;;;;;4.30;3.60;;;;;;;7.86;100.00;97897.69;5077960;28;20271;-70
2022/11/15 01:57:24;;;;;;;6.73;4.43;;;;;;;7.84;100.00;97899.59;5078188;28;20252;-68
2022/11/15 01:59:51;;;;;;;6.30;4.37;;;;;;;7.82;100.00;97888.28;5078068;28;20271;-68
2022/11/15 02:02:17;;;;;;;7.17;4.50;;;;;;;7.87;100.00;97891.50;5076369;28;20256;-68
2022/11/15 02:04:46;;;;;;;6.03;4.37;;;;;;;7.98;100.00;97878.50;5078170;28;20254;-68
2022/11/15 02:07:18;;;;;;;5.50;4.27;;;;;;;8.07;100.00;97877.91;5078335;28;20256;-68
2022/11/15 02:09:45;;;;;;;5.57;4.13;;;;;;;8.19;100.00;97877.16;5077950;28;20215;-69
2022/11/15 02:12:16;;;;;;;6.20;4.47;;;;;;;8.27;100.00;97872.28;5078420;28;20258;-68
2022/11/15 02:14:47;;;;;;;4.97;4.10;;;;;;;8.40;100.00;97865.28;5078273;28;20220;-69
2022/11/15 02:17:34;;;;;;;7.03;3.60;;;;;;;8.51;100.00;97857.53;5078299;28;20217;-68
2022/11/15 02:20:28;;;;;;;4.73;3.57;;;;;;;8.59;100.00;97844.69;5077961;28;20313;-69
2022/11/15 02:23:22;;;;;;;4.17;3.17;;;;;;;8.69;100.00;97845.78;5078196;28;20216;-68
2022/11/15 02:26:08;;;;;;;4.37;3.10;;;;;;;8.75;100.00;97829.59;5077742;28;20299;-68
2022/11/15 02:28:59;;;;;;;4.80;3.13;;;;;;;8.80;100.00;97827.47;5075962;28;20299;-68
2022/11/15 02:31:32;;;;;;;3.37;2.97;;;;;;;8.86;100.00;97824.41;5077519;28;20314;-68
2022/11/15 02:34:09;;;;;;;2.83;2.63;;;;;;;8.92;100.00;97827.50;5077388;28;20306;-67
2022/11/15 02:36:43;;;;;;;3.53;3.03;;;;;;;8.97;100.00;97821.91;5077541;28;20263;-67
2022/11/15 02:39:19;;;;;;;3.00;2.70;;;;;;;9.00;100.00;97817.25;5077284;28;20250;-69
2022/11/15 02:41:52;;;;;;;4.77;3.23;;;;;;;9.03;100.00;97814.44;5077374;28;20263;-68
2022/11/15 02:44:23;;;;;;;5.80;3.07;;;;;;;9.04;100.00;97802.09;5077224;28;20258;-68
2022/11/15 02:47:13;;;;;;;3.63;3.07;;;;;;;9.01;100.00;97804.94;5077206;28;20216;-68
2022/11/15 02:49:42;;;;;;;4.40;3.30;;;;;;;8.92;100.00;97811.69;5077220;28;20211;-68
2022/11/15 02:52:09;;;;;;;4.50;3.10;;;;;;;8.87;100.00;97819.03;5077200;28;20256;-68
2022/11/15 02:54:35;;;;;;;5.33;3.30;;;;;;;8.83;100.00;97816.72;5075500;28;20298;-69
2022/11/15 02:57:05;;;;;;;5.03;3.77;;;;;;;8.84;100.00;97821.03;5077240;28;20248;-69
2022/11/15 03:00:07;;;;;;;3.53;3.23;;;;;;;8.78;100.00;97818.81;5077163;28;20599;-69
2022/11/15 03:02:50;;;;;;;4.97;3.93;;;;;;;8.69;100.00;97808.91;5076260;28;20304;-68
2022/11/15 03:05:23;;;;;;;6.07;4.47;;;;;;;8.62;100.00;97807.63;5077111;28;20218;-68
2022/11/15 03:07:58;;;;;;;7.33;5.17;;;;;;;8.59;100.00;97818.34;5077367;28;20636;-68
2022/11/15 03:10:32;;;;;;;5.27;4.77;;;;;;;8.61;100.00;97816.47;5076994;28;20524;-68
2022/11/15 03:13:08;;;;;;;6.20;4.60;;;;;;;8.60;100.00;97817.41;5076962;28;20253;-68
2022/11/15 03:15:42;;;;;;;7.63;4.83;;;;;;;8.57;100.00;97804.47;5076862;28;20280;-68
2022/11/15 03:18:15;;;;;;;7.33;4.73;;;;;;;8.46;100.00;97809.59;5076806;28;20264;-67
2022/11/15 03:20:44;;;;;;;6.20;5.10;;;;;;;8.29;100.00;97801.94;5075060;28;20661;-67
2022/11/15 03:23:11;;;;;;;6.83;5.10;;;;;;;8.08;100.00;97811.22;5076679;28;20252;-67
2022/11/15 03:25:44;;;;;;;7.20;5.13;;;;;;;7.90;100.00;97815.00;5076646;28;20546;-67
2022/11/15 03:28:17;;;;;;;7.30;5.80;;;;;;;7.72;100.00;97809.09;5076937;28;20257;-68
2022/11/15 03:30:47;;;;;;;8.97;6.20;;;;;;;7.63;100.00;97808.84;5076632;28;20254;-68
2022/11/15 03:33:16;;;;;;;7.60;5.27;;;;;;;7.53;100.00;97807.75;5076693;28;20215;-67
2022/11/15 03:35:45;;;;;;;7.53;5.83;;;;;;;7.45;100.00;97813.47;5076714;28;20257;-67
2022/11/15 03:38:18;;;;;;;7.77;5.77;;;;;;;7.42;100.00;97815.44;5076669;28;20252;-67
2022/11/15 03:40:52;;;;;;;7.97;6.30;;;;;;;7.39;100.00;97815.63;5076544;28;20274;-67
2022/11/15 03:43:29;;;;;;;9.10;6.77;;;;;;;7.36;100.00;97815.81;5076522;28;20295;-68
2022/11/15 03:46:01;;;;;;;8.53;6.33;;;;;;;7.37;100.00;97820.13;5075073;28;20269;-68
2022/11/15 03:48:34;;;;;;;10.07;6.63;;;;;;;7.38;100.00;97808.69;5076723;28;20550;-68
2022/11/15 03:51:01;;;;;;;8.90;5.77;;;;;;;7.42;100.00;97812.81;5076456;28;20253;-68
2022/11/15 03:53:30;;;;;;;8.47;6.07;;;;;;;7.40;100.00;97797.13;5076640;28;20217;-67
2022/11/15 03:55:57;;;;;;;7.83;5.97;;;;;;;7.44;100.00;97792.53;5076405;28;20331;-68
2022/11/15 03:58:23;;;;;;;8.83;6.43;;;;;;;7.47;100.00;97787.09;5076351;28;20303;-68
2022/11/15 04:00:50;;;;;;;11.10;6.67;;;;;;;7.53;100.00;97784.06;5076347;28;20268;-67
2022/11/15 04:03:17;;;;;;;9.93;6.17;;;;;;;7.53;100.00;97781.44;5076315;28;20263;-68
2022/11/15 04:05:44;;;;;;;8.07;6.20;;;;;;;7.60;100.00;97788.00;5076318;28;20252;-67
2022/11/15 04:08:11;;;;;;;9.10;6.63;;;;;;;7.73;100.00;97784.50;5076359;28;20250;-68
2022/11/15 04:10:38;;;;;;;8.60;6.23;;;;;;;7.88;100.00;97782.66;5074624;28;20254;-68
2022/11/15 04:13:04;;;;;;;8.73;6.67;;;;;;;8.00;100.00;97777.47;5076391;28;20681;-68
2022/11/15 04:15:31;;;;;;;9.30;5.70;;;;;;;8.12;100.00;97781.09;5080173;28;20550;-68
2022/11/15 04:17:58;;;;;;;7.07;5.90;;;;;;;8.20;100.00;97779.69;5080051;28;20262;-68
2022/11/15 04:26:01;;;;;;;8.30;5.63;;;;;;;8.38;100.00;97770.59;5080066;28;20312;-68
2022/11/15 04:28:28;;;;;;;6.47;5.47;;;;;;;8.41;100.00;97766.91;5079709;28;20255;-68
2022/11/15 04:30:54;;;;;;;7.53;5.63;;;;;;;8.42;100.00;97763.31;5079875;28;20328;-68
2022/11/15 04:33:22;;;;;;;6.80;5.90;;;;;;;8.42;100.00;97761.53;5079806;28;20580;-67
2022/11/15 04:38:31;;;;;;;8.60;6.20;;;;;;;8.44;100.00;97761.44;5078298;28;20209;-68
2022/11/15 04:40:57;;;;;;;8.27;6.17;;;;;;;8.43;100.00;97771.13;5079404;28;20278;-68
2022/11/15 04:43:24;;;;;;;7.77;5.43;;;;;;;8.45;100.00;97763.13;5079673;28;20252;-69
2022/11/15 04:45:50;;;;;;;7.27;5.50;;;;;;;8.45;100.00;97755.22;5079548;28;20223;-68
2022/11/15 04:48:17;;;;;;;5.80;5.20;;;;;;;8.46;100.00;97749.84;5079439;28;20253;-67
2022/11/15 04:50:44;;;;;;;7.57;5.40;;;;;;;8.48;100.00;97752.38;5079427;28;20253;-68
2022/11/15 04:53:10;;;;;;;6.83;5.53;;;;;;;8.43;100.00;97749.19;5079345;28;20692;-68
2022/11/15 04:55:38;;;;;;;5.77;5.00;;;;;;;8.37;100.00;97749.59;5079199;28;20303;-69
2022/11/15 04:58:05;;;;;;;7.33;5.60;;;;;;;8.31;100.00;97750.00;5079453;28;20304;-67
2022/11/15 05:00:32;;;;;;;7.37;5.53;;;;;;;8.25;100.00;97750.41;5079175;28;20315;-68
2022/11/15 05:05:43;;;;;;;9.70;5.47;;;;;;;8.03;100.00;97742.22;5079286;28;20211;-68
2022/11/15 05:08:09;;;;;;;7.37;5.83;;;;;;;7.89;100.00;97742.28;5079383;28;20216;-68
2022/11/15 05:10:37;;;;;;;6.90;5.40;;;;;;;7.77;100.00;97751.78;5079096;28;20606;-67
2022/11/15 05:13:04;;;;;;;7.50;5.30;;;;;;;7.61;100.00;97742.34;5079154;28;20252;-69
2022/11/15 05:15:30;;;;;;;7.47;5.17;;;;;;;7.54;100.00;97748.94;5079053;28;20574;-67
2022/11/15 05:18:00;;;;;;;7.43;5.80;;;;;;;7.46;100.00;97748.56;5078897;28;20298;-68
2022/11/15 05:20:27;;;;;;;7.23;5.73;;;;;;;7.41;100.00;97740.97;5078776;28;20275;-69
2022/11/15 05:22:55;;;;;;;6.97;5.43;;;;;;;7.34;100.00;97741.47;5078935;28;20262;-69
2022/11/15 05:25:21;;;;;;;8.23;5.70;;;;;;;7.28;100.00;97739.22;5077884;28;20269;-69
2022/11/15 05:27:49;;;;;;;6.97;5.37;;;;;;;7.26;100.00;97740.25;5077592;28;20312;-68
2022/11/15 05:30:17;;;;;;;7.27;5.43;;;;;;;7.24;100.00;97741.19;5078154;28;20560;-68
2022/11/15 05:32:43;;;;;;;7.23;5.77;;;;;;;7.22;100.00;97742.25;5078557;28;20219;-68
2022/11/15 05:35:14;;;;;;;7.67;5.80;;;;;;;7.18;100.00;97741.56;5078495;28;20251;-69
2022/11/15 05:37:41;;;;;;;8.07;5.97;;;;;;;7.20;100.00;97743.28;5078484;28;20550;-69
2022/11/15 05:40:09;;;;;;;7.70;5.40;;;;;;;7.21;100.00;97737.06;5078634;28;20294;-69
2022/11/15 05:42:36;;;;;;;7.63;5.83;;;;;;;7.22;100.00;97735.19;5078310;28;20258;-69
2022/11/15 05:45:07;;;;;;;8.77;5.97;;;;;;;7.32;100.00;97732.81;5078463;28;20251;-67
2022/11/15 05:47:35;;;;;;;7.47;5.63;;;;;;;7.42;100.00;97726.88;5078275;28;20251;-68
2022/11/15 05:50:02;;;;;;;10.23;6.40;;;;;;;7.53;100.00;97723.59;5078183;28;20262;-68
2022/11/15 05:52:32;;;;;;;8.60;6.43;;;;;;;7.62;100.00;97730.88;5078440;28;20242;-68
2022/11/15 05:54:59;;;;;;;11.50;6.73;;;;;;;7.67;100.00;97724.41;5076380;28;20254;-69
2022/11/15 05:57:26;;;;;;;9.27;6.50;;;;;;;7.75;100.00;97721.28;5078164;28;20254;-68
2022/11/15 05:59:54;;;;;;;9.83;6.60;;;;;;;7.78;100.00;97726.34;5078009;28;20262;-68
2022/11/15 06:02:22;;;;;;;8.67;5.67;;;;;;;7.80;100.00;97727.09;5077985;28;20275;-68
2022/11/15 06:04:49;;;;;;;5.97;5.33;;;;;;;7.81;100.00;97724.34;5077912;28;20618;-68
2022/11/15 06:07:16;;;;;;;7.27;6.20;;;;;;;7.80;100.00;97721.81;5077964;28;20632;-68
2022/11/15 06:09:42;;;;;;;7.07;6.03;;;;;;;7.82;100.00;97722.56;5078097;28;20263;-68
2022/11/15 06:12:09;;;;;;;8.03;6.00;;;;;;;7.82;100.00;97722.56;5078072;28;20262;-69
2022/11/15 06:14:35;;;;;;;8.80;6.33;;;;;;;7.83;100.00;97726.91;5077803;28;20259;-68
2022/11/15 06:17:02;;;;;;;7.50;5.73;;;;;;;7.85;100.00;97720.56;5077942;28;20256;-69
2022/11/15 06:19:32;;;;;;;7.80;6.13;;;;;;;7.79;100.00;97730.66;5076081;28;20303;-69
2022/11/15 06:21:59;;;;;;;6.17;5.50;;;;;;;7.85;100.00;97725.00;5077655;28;20319;-68
2022/11/15 06:24:26;;;;;;;9.87;6.00;;;;;;;7.91;100.00;97727.25;5077673;28;20252;-69
2022/11/15 06:26:52;;;;;;;6.70;5.30;;;;;;;7.87;100.00;97723.09;5077571;28;20255;-69
2022/11/15 06:29:19;;;;;;;10.63;5.97;;;;;;;7.84;100.00;97723.31;5077536;28;20259;-67
2022/11/15 06:31:45;;;;;;;8.60;6.10;;;;;;;7.85;100.00;97720.56;5077390;28;20299;-68
2022/11/15 06:34:12;;;;;;;8.97;6.00;;;;;;;7.82;100.00;97722.56;5077358;28;20252;-68
2022/11/15 06:36:40;;;;;;;7.77;5.30;;;;;;;7.76;100.00;97720.31;5077557;28;20252;-69
2022/11/15 06:39:07;;;;;;;6.93;5.47;;;;;;;7.72;100.00;97718.84;5077312;28;20221;-69
2022/11/15 06:41:35;;;;;;;9.10;5.90;;;;;;;7.68;100.00;97717.34;5077281;28;20320;-68
2022/11/15 06:44:01;;;;;;;7.77;5.57;;;;;;;7.63;100.00;97725.53;5077351;28;20256;-69
2022/11/15 06:46:28;;;;;;;7.87;5.53;;;;;;;7.65;100.00;97721.00;5075447;28;20299;-69
2022/11/15 06:48:55;;;;;;;7.17;5.57;;;;;;;7.71;100.00;97722.44;5077336;28;20257;-68
2022/11/15 06:51:21;;;;;;;5.73;5.03;;;;;;;7.78;100.00;97727.16;5077225;28;20271;-69
2022/11/15 06:53:49;;;;;;;9.43;6.00;;;;;;;7.81;100.00;97724.34;5077235;28;20224;-68
2022/11/15 06:56:16;;;;;;;9.33;5.50;;;;;;;7.82;100.00;97733.06;5077132;28;20323;-68
2022/11/15 06:58:43;;;;;;;6.37;5.53;;;;;;;7.75;100.00;97727.38;5077154;28;20251;-69
2022/11/15 07:01:11;;;;;;;11.40;6.17;;;;;;;7.68;100.00;97738.38;5077026;28;20280;-69
2022/11/15 07:03:40;;;;;;;9.47;6.27;;;;;;;7.58;100.00;97745.16;5077369;28;20541;-69
2022/11/15 07:06:07;;;;;;;7.40;6.07;;;;;;;7.59;100.00;97746.88;5076956;28;20254;-69
2022/11/15 07:08:35;;;;;;;7.03;5.70;;;;;;;7.60;100.00;97751.19;5076958;28;20573;-68
2022/11/15 07:11:07;;;;;;;7.40;5.50;;;;;;;7.59;100.00;97758.22;5075243;28;20253;-69
2022/11/15 07:13:35;;;;;;;9.80;6.23;;;;;;;7.56;100.00;97747.91;5077086;28;20260;-69
2022/11/15 07:16:03;;;;;;;7.03;5.60;;;;;;;7.56;100.00;97750.53;5076876;28;20251;-68
2022/11/15 07:18:30;;;;;;;8.23;5.63;;;;;;;7.61;100.00;97748.47;5076816;28;20634;-68
2022/11/15 07:21:01;;;;;;;9.13;5.77;;;;;;;7.76;100.00;97751.88;5076815;28;20244;-68
2022/11/15 07:23:28;;;;;;;6.43;5.73;;;;;;;7.83;100.00;97754.03;5076916;28;20259;-68
2022/11/15 07:25:54;;;;;;;6.93;5.83;;;;;;;7.89;100.00;97750.19;5076854;28;20251;-68
2022/11/15 07:28:22;;;;;;;8.67;5.70;;;;;;;7.91;100.00;97743.03;5076905;28;20601;-68
2022/11/15 07:30:49;;;;;;;6.43;5.33;;;;;;;7.93;100.00;97743.75;5077029;28;20251;-68
2022/11/15 07:33:16;;;;;;;7.33;5.40;;;;;;;7.96;100.00;97749.66;5076765;28;20571;-68
2022/11/15 07:35:42;;;;;;;8.23;5.27;;;;;;;8.02;100.00;97743.19;5076641;28;20254;-68
2022/11/15 07:38:09;;;;;;;7.03;5.57;;;;;;;8.10;100.00;97740.88;5074918;28;20304;-68
2022/11/15 07:40:36;;;;;;;7.50;5.40;;;;;;;8.24;100.00;97738.22;5076476;28;20298;-68
2022/11/15 07:43:04;;;;;;;8.93;6.07;;;;;;;8.39;100.00;97737.22;5076557;28;20298;-68
2022/11/15 07:45:34;;;;;;;7.57;5.43;;;;;;;8.57;100.00;97726.25;5076614;28;20264;-68
2022/11/15 07:48:01;;;;;;;6.80;5.13;;;;;;;8.78;100.00;97730.09;5076741;28;20232;-68
2022/11/15 07:50:28;;;;;;;8.17;5.73;;;;;;;8.99;100.00;97714.59;5080543;28;20248;-68
2022/11/15 07:52:56;;;;;;;7.03;5.27;;;;;;;9.17;100.00;97716.78;5080462;28;20221;-68
2022/11/15 07:55:23;;;;;;;6.87;5.10;;;;;;;9.34;100.00;97707.66;5080281;28;20313;-68
2022/11/15 07:57:50;;;;;;;6.23;4.40;;;;;;;9.49;100.00;97706.59;5080482;28;20280;-68
2022/11/15 08:00:17;;;;;;;5.70;4.60;;;;;;;9.62;100.00;97702.13;5080444;28;20255;-68
2022/11/15 08:02:45;;;;;;;6.73;4.87;;;;;;;9.73;100.00;97700.38;5078438;28;20273;-68
2022/11/15 08:05:12;;;;;;;7.23;5.33;;;;;;;9.81;100.00;97697.19;5080275;28;20250;-68
2022/11/15 08:07:40;;;;;;;7.00;4.73;;;;;;;9.89;100.00;97695.69;5080236;28;20313;-68
2022/11/15 08:10:07;;;;;;;7.40;5.23;;;;;;;10.00;100.00;97692.25;5080513;28;20257;-68
2022/11/15 08:12:34;;;;;;;6.73;5.00;;;;;;;10.10;100.00;97690.66;5080181;28;20254;-68
2022/11/15 08:15:01;;;;;;;7.53;4.80;;;;;;;10.22;100.00;97681.81;5080163;28;20253;-67
2022/11/15 08:17:31;;;;;;;7.07;5.37;;;;;;;10.35;100.00;97678.13;5080037;28;20261;-67
2022/11/15 08:19:59;;;;;;;5.37;4.80;;;;;;;10.47;100.00;97668.44;5079910;28;20223;-68
2022/11/15 08:22:26;;;;;;;6.40;4.77;;;;;;;10.56;100.00;97660.66;5079854;28;20305;-68
2022/11/15 08:24:53;;;;;;;8.43;4.80;;;;;;;10.54;100.00;97656.44;5079906;28;20269;-68
2022/11/15 08:27:20;;;;;;;8.60;5.00;;;;;;;10.50;100.00;97653.19;5078415;28;20260;-69
2022/11/15 08:29:48;;;;;;;8.43;4.87;;;;;;;10.43;100.00;97653.78;5074654;28;20274;-70
2022/11/15 08:32:15;;;;;;;7.57;4.70;;;;;;;10.37;100.00;97660.38;5079674;28;20653;-69
2022/11/15 08:34:41;;;;;;;6.23;4.37;;;;;;;10.39;100.00;97657.63;5079672;28;20219;-69
2022/11/15 08:37:09;;;;;;;5.37;4.40;;;;;;;10.45;100.00;97657.16;5079793;28;20290;-69
2022/11/15 08:39:36;;;;;;;5.10;4.20;;;;;;;10.57;100.00;97645.63;5079745;28;20309;-69
2022/11/15 08:42:02;;;;;;;7.73;4.97;;;;;;;10.67;100.00;97641.34;5079285;28;20646;-69
2022/11/15 08:44:29;;;;;;;9.80;5.00;;;;;;;10.73;100.00;97628.50;5079405;28;20259;-68
2022/11/15 08:46:56;;;;;;;5.73;4.10;;;;;;;10.72;100.00;97623.31;5079515;28;20263;-68
2022/11/15 08:49:22;;;;;;;5.70;4.13;;;;;;;10.70;100.00;97625.25;5079551;28;20303;-68
2022/11/15 08:51:49;;;;;;;6.00;4.00;;;;;;;10.66;100.00;97623.78;5079416;28;20696;-68
2022/11/15 08:54:17;;;;;;;5.57;4.03;;;;;;;10.71;100.00;97616.34;5077447;28;20255;-68
2022/11/15 08:56:43;;;;;;;6.90;4.90;;;;;;;10.77;100.00;97615.88;5079228;28;20286;-68
2022/11/15 08:59:10;;;;;;;7.27;4.50;;;;;;;10.93;100.00;97611.06;5079208;28;20257;-68
2022/11/15 09:01:37;;;;;;;6.27;4.37;;;;;;;11.10;100.00;97607.94;5078326;28;20622;-68
2022/11/15 09:04:04;;;;;;;4.90;4.20;;;;;;;11.26;100.00;97597.81;5079288;28;20269;-68
2022/11/15 09:06:31;;;;;;;5.80;4.33;;;;;;;11.43;100.00;97594.66;5079232;28;20218;-68
2022/11/15 09:08:58;;;;;;;4.50;4.00;;;;;;;11.60;99.38;97584.41;5079147;28;20227;-68
2022/11/15 09:11:26;;;;;;;5.13;3.83;;;;;;;11.75;97.94;97584.97;5079135;28;20658;-68
2022/11/15 09:13:53;;;;;;;4.37;3.90;;;;;;;11.88;96.21;97581.19;5078995;28;20344;-68
2022/11/15 09:16:20;;;;;;;5.97;4.10;;;;;;;11.95;95.67;97576.19;5079002;28;20305;-68
2022/11/15 09:18:46;;;;;;;5.60;4.20;;;;;;;12.02;94.84;97575.56;5078997;28;20344;-68
2022/11/15 09:21:13;;;;;;;5.90;4.00;;;;;;;12.07;92.30;97549.53;5077213;28;20253;-68
2022/11/15 09:23:40;;;;;;;4.17;3.60;;;;;;;12.24;91.72;97550.75;5078852;28;20304;-68
2022/11/15 09:26:07;;;;;;;3.80;3.40;;;;;;;12.40;90.25;97540.53;5078856;28;20257;-68
2022/11/15 09:28:36;;;;;;;3.70;3.37;;;;;;;12.55;89.76;97547.16;5078820;28;20310;-68
2022/11/15 09:31:05;;;;;;;4.53;3.90;;;;;;;12.70;88.77;97532.56;5078765;28;20302;-68
2022/11/15 09:33:32;;;;;;;6.10;3.93;;;;;;;12.77;88.39;97531.91;5078621;28;20284;-68
2022/11/15 09:36:02;;;;;;;5.87;3.97;;;;;;;12.83;87.58;97531.38;5078696;28;20355;-68
2022/11/15 09:38:29;;;;;;;4.90;3.40;;;;;;;12.97;87.18;97530.19;5078554;28;20513;-68
2022/11/15 09:41:14;;;;;;;3.97;3.37;;;;;;;13.03;86.67;97524.34;5078564;28;20257;-68
2022/11/15 09:43:51;;;;;;;4.20;3.00;;;;;;;13.04;86.28;97526.03;5078442;28;20253;-68
2022/11/15 09:46:28;;;;;;;4.57;3.00;;;;;;;13.04;86.44;97520.72;5076651;28;20267;-68
2022/11/15 09:48:56;;;;;;;4.80;2.90;;;;;;;12.98;85.98;97521.25;5078384;28;20585;-68
2022/11/15 09:51:31;;;;;;;4.60;3.40;;;;;;;12.96;84.99;97520.56;5078336;28;20500;-68
2022/11/15 09:54:06;;;;;;;4.10;3.00;;;;;;;13.02;85.71;97522.69;5078282;28;20226;-68
2022/11/15 09:56:37;;;;;;;3.90;3.20;;;;;;;13.13;86.22;97519.88;5078036;28;20547;-68
2022/11/15 09:59:23;;;;;;;3.50;3.20;;;;;;;13.27;85.12;97501.75;5078273;28;20254;-68
2022/11/15 10:01:57;;;;;;;4.50;2.80;;;;;;;13.44;84.34;97497.59;5078178;28;20273;-69
2022/11/15 10:04:26;;;;;;;4.90;3.23;;;;;;;13.58;82.99;97498.00;5076929;28;20257;-68
2022/11/15 10:06:58;;;;;;;6.30;2.87;;;;;;;13.73;83.12;97493.09;5076760;28;20251;-69
2022/11/15 10:09:30;;;;;;;4.47;3.00;;;;;;;13.88;82.51;97484.56;5073047;28;20265;-68
2022/11/15 10:11:57;;;;;;;4.10;2.80;;;;;;;13.99;81.65;97472.97;5072606;28;20331;-67
2022/11/15 10:14:29;;;;;;;3.60;3.00;;;;;;;14.06;81.52;97474.06;5077611;28;20247;-68
2022/11/15 10:17:38;;;;;;;5.40;3.73;;;;;;;14.11;81.21;97467.34;5077720;28;20253;-67
2022/11/15 10:20:18;;;;;;;5.40;3.40;;;;;;;14.12;82.79;97484.13;5035580;28;20336;-68
2022/11/15 10:22:48;;;;;;;7.03;3.40;;;;;;;14.12;83.12;97484.13;5074919;28;20270;-68
2022/11/15 10:25:21;;;;;;;4.83;3.50;;;;;;;14.13;82.87;97476.00;5077615;28;20245;-68
2022/11/15 10:27:56;;;;;;;5.43;3.40;;;;;;;14.13;82.77;97472.50;5077635;28;20251;-67
2022/11/15 10:30:30;;;;;;;5.33;3.30;;;;;;;14.09;82.62;97468.44;5077546;28;20566;-68
2022/11/15 10:32:57;;;;;;;5.00;3.33;;;;;;;14.06;84.61;97495.31;5077501;28;20210;-68
2022/11/15 10:35:26;;;;;;;4.73;3.63;;;;;;;14.02;84.84;97484.16;5077665;28;20252;-68
2022/11/15 10:38:05;;;;;;;5.20;3.50;;;;;;;13.99;85.39;97494.22;5075651;28;20639;-68
2022/11/15 10:40:31;;;;;;;5.57;3.57;;;;;;;13.99;85.08;97483.59;5077209;28;20657;-68
2022/11/15 10:43:13;;;;;;;5.43;3.40;;;;;;;13.94;84.98;97476.03;5077098;28;20310;-68
2022/11/15 10:45:42;;;;;;;5.20;3.10;;;;;;;13.95;84.58;97471.56;5077199;28;20219;-68
2022/11/15 10:48:26;;;;;;;4.63;3.30;;;;;;;13.94;83.88;97469.91;5077266;28;20255;-68
2022/11/15 10:50:54;;;;;;;4.00;3.47;;;;;;;13.91;83.63;97459.53;5077215;28;20219;-68
2022/11/15 10:53:32;;;;;;;4.30;3.50;;;;;;;13.88;83.92;97462.50;5077194;28;20545;-68
2022/11/15 10:56:02;;;;;;;4.63;3.27;;;;;;;13.87;84.48;97460.81;5077130;28;20301;-68
2022/11/15 10:58:35;;;;;;;4.93;2.90;;;;;;;13.84;84.60;97463.75;5077090;28;20258;-68
2022/11/15 11:01:16;;;;;;;3.70;2.90;;;;;;;13.81;83.83;97453.44;5077077;28;20219;-68
2022/11/15 11:03:45;;;;;;;4.60;3.03;;;;;;;13.82;84.09;97455.91;5075285;28;20271;-68
2022/11/15 11:06:14;;;;;;;3.70;2.70;;;;;;;13.86;84.02;97451.16;5077044;28;20265;-68
2022/11/15 11:08:41;;;;;;;4.70;3.10;;;;;;;13.87;83.42;97435.09;5076984;28;20250;-67
2022/11/15 11:11:08;;;;;;;4.97;3.10;;;;;;;13.87;83.85;97448.38;5077299;28;20215;-67
2022/11/15 11:13:37;;;;;;;4.30;2.90;;;;;;;13.87;83.29;97439.56;5076795;28;20220;-67
2022/11/15 11:16:34;;;;;;;4.17;2.93;;;;;;;13.82;82.89;97429.34;5076772;28;20606;-67
2022/11/15 11:19:09;;;;;;;4.47;3.30;;;;;;;13.73;82.22;97427.56;5076875;28;20576;-67
2022/11/15 11:21:48;;;;;;;4.20;2.70;;;;;;;13.69;82.69;97435.97;5076796;28;20301;-67
2022/11/15 11:24:25;;;;;;;3.47;2.87;;;;;;;13.66;83.61;97450.38;5076049;28;20219;-68
2022/11/15 11:27:07;;;;;;;4.43;3.10;;;;;;;13.66;84.28;97455.69;5077118;28;20309;-68
2022/11/15 11:29:46;;;;;;;3.37;2.87;;;;;;;13.66;84.51;97449.53;5075126;28;20297;-68
2022/11/15 11:32:29;;;;;;;2.80;2.50;;;;;;;13.71;84.62;97441.97;5076761;28;20242;-67
2022/11/15 11:35:05;;;;;;;3.20;2.70;;;;;;;13.74;84.41;97439.03;5076717;28;20223;-68
2022/11/15 11:37:40;;;;;;;3.20;2.80;;;;;;;13.81;84.37;97440.16;5076659;28;20246;-67
2022/11/15 11:40:17;;;;;;;2.93;2.60;;;;;;;13.88;84.33;97423.47;5076560;28;20254;-68
2022/11/15 11:42:58;;;;;;;5.13;2.77;;;;;;;13.96;84.36;97425.41;5076528;28;20235;-67
2022/11/15 11:45:48;;;;;;;3.77;2.80;;;;;;;14.03;83.62;97421.19;5076647;28;20222;-68
2022/11/15 11:48:32;;;;;;;5.23;2.87;;;;;;;14.08;83.44;97406.53;5076621;28;20277;-67
2022/11/15 11:51:09;;;;;;;15.83;11.03;;;;;;;14.15;83.55;97409.41;5076404;28;20265;-67
2022/11/15 11:53:42;;;;;;;9.67;7.07;;;;;;;14.23;83.07;97396.28;5076794;28;20580;-67
2022/11/15 11:56:23;;;;;;;6.37;4.20;;;;;;;14.33;82.16;97383.78;5074665;28;20291;-67